sensor_id;sensor_type;location;lat;lon;timestamp;noise_LAeq;noise_LA_min;noise_LA_max;noise_LA01;noise_LA95
69668;Laerm;66534;52.370;4.832;2023-10-13T00:00:16;42.67;40.44;52.69;;
69668;Laerm;66534;52.370;4.832;2023-10-13T00:00:56;46.14;42.71;53.28;;
69668;Laerm;66534;52.370;4.832;2023-10-13T00:01:27;44.38;41.19;51.76;;
69668;Laerm;66534;52.370;4.832;2023-10-13T00:01:58;43.77;40.86;49.20;;
69668;Laerm;66534;52.370;4.832;2023-10-13T00:02:29;42.71;39.83;45.88;;
69668;Laerm;66534;52.370;4.832;2023-10-13T00:02:59;46.62;40.25;49.96;;
69668;Laerm;66534;52.370;4.832;2023-10-13T00:03:30;46.92;44.27;54.12;;
69668;Laerm;66534;52.370;4.832;2023-10-13T00:04:01;45.27;41.67;52.76;;
69668;Laerm;66534;52.370;4.832;2023-10-13T00:04:32;41.92;38.78;48.17;;
69668;Laerm;66534;52.370;4.832;2023-10-13T00:05:05;41.58;39.52;49.09;;
69668;Laerm;66534;52.370;4.832;2023-10-13T00:05:38;41.69;38.89;43.71;;
69668;Laerm;66534;52.370;4.832;2023-10-13T00:06:11;43.54;40.04;47.43;;
69668;Laerm;66534;52.370;4.832;2023-10-13T00:06:41;44.79;40.28;49.67;;
69668;Laerm;66534;52.370;4.832;2023-10-13T00:07:12;43.82;39.21;53.04;;
69668;Laerm;66534;52.370;4.832;2023-10-13T00:07:43;49.10;38.60;65.25;;
69668;Laerm;66534;52.370;4.832;2023-10-13T00:08:13;42.53;38.93;51.16;;
69668;Laerm;66534;52.370;4.832;2023-10-13T00:08:44;42.06;38.91;48.94;;
69668;Laerm;66534;52.370;4.832;2023-10-13T00:09:14;48.41;39.79;62.18;;
69668;Laerm;66534;52.370;4.832;2023-10-13T00:09:44;49.53;39.08;59.82;;
69668;Laerm;66534;52.370;4.832;2023-10-13T00:10:15;40.52;38.43;44.63;;
69668;Laerm;66534;52.370;4.832;2023-10-13T00:10:48;42.75;38.69;51.02;;
69668;Laerm;66534;52.370;4.832;2023-10-13T00:11:19;42.93;39.51;54.99;;
69668;Laerm;66534;52.370;4.832;2023-10-13T00:11:51;42.59;39.38;46.21;;
69668;Laerm;66534;52.370;4.832;2023-10-13T00:12:23;42.92;39.53;46.57;;
69668;Laerm;66534;52.370;4.832;2023-10-13T00:12:54;44.36;39.40;50.56;;
69668;Laerm;66534;52.370;4.832;2023-10-13T00:13:35;42.32;38.34;51.03;;
69668;Laerm;66534;52.370;4.832;2023-10-13T00:14:20;43.02;40.15;58.52;;
69668;Laerm;66534;52.370;4.832;2023-10-13T00:15:02;43.42;39.79;51.77;;
69668;Laerm;66534;52.370;4.832;2023-10-13T00:15:38;43.24;40.52;51.63;;
69668;Laerm;66534;52.370;4.832;2023-10-13T00:16:10;43.06;40.01;49.37;;
69668;Laerm;66534;52.370;4.832;2023-10-13T00:16:47;42.25;38.49;47.60;;
69668;Laerm;66534;52.370;4.832;2023-10-13T00:17:38;40.78;38.65;52.42;;
69668;Laerm;66534;52.370;4.832;2023-10-13T00:18:08;45.66;40.79;53.05;;
69668;Laerm;66534;52.370;4.832;2023-10-13T00:18:44;44.61;42.21;47.00;;
69668;Laerm;66534;52.370;4.832;2023-10-13T00:19:15;46.11;43.47;48.80;;
69668;Laerm;66534;52.370;4.832;2023-10-13T00:19:45;42.50;39.70;48.36;;
69668;Laerm;66534;52.370;4.832;2023-10-13T00:20:16;45.87;39.78;56.46;;
69668;Laerm;66534;52.370;4.832;2023-10-13T00:21:05;41.68;39.01;44.72;;
69668;Laerm;66534;52.370;4.832;2023-10-13T00:21:45;44.12;40.46;47.43;;
69668;Laerm;66534;52.370;4.832;2023-10-13T00:22:17;44.16;39.48;48.95;;
69668;Laerm;66534;52.370;4.832;2023-10-13T00:22:52;45.01;39.32;53.72;;
69668;Laerm;66534;52.370;4.832;2023-10-13T00:23:23;42.63;39.89;51.01;;
69668;Laerm;66534;52.370;4.832;2023-10-13T00:23:57;43.02;40.47;49.54;;
69668;Laerm;66534;52.370;4.832;2023-10-13T00:24:28;44.98;40.46;56.11;;
69668;Laerm;66534;52.370;4.832;2023-10-13T00:25:00;43.63;40.39;49.60;;
69668;Laerm;66534;52.370;4.832;2023-10-13T00:25:33;44.52;41.62;53.80;;
69668;Laerm;66534;52.370;4.832;2023-10-13T00:26:13;42.80;39.71;45.71;;
69668;Laerm;66534;52.370;4.832;2023-10-13T00:26:48;43.77;41.65;45.52;;
69668;Laerm;66534;52.370;4.832;2023-10-13T00:27:19;45.11;41.63;52.06;;
69668;Laerm;66534;52.370;4.832;2023-10-13T00:28:05;45.62;43.33;52.76;;
69668;Laerm;66534;52.370;4.832;2023-10-13T00:28:38;44.15;41.29;52.34;;
69668;Laerm;66534;52.370;4.832;2023-10-13T00:29:17;47.87;43.58;57.35;;
69668;Laerm;66534;52.370;4.832;2023-10-13T00:29:48;52.18;48.93;62.07;;
69668;Laerm;66534;52.370;4.832;2023-10-13T00:30:20;52.54;48.49;61.41;;
69668;Laerm;66534;52.370;4.832;2023-10-13T00:31:03;52.70;48.79;62.89;;
69668;Laerm;66534;52.370;4.832;2023-10-13T00:31:44;51.66;47.10;76.93;;
69668;Laerm;66534;52.370;4.832;2023-10-13T00:32:18;48.19;44.70;56.19;;
69668;Laerm;66534;52.370;4.832;2023-10-13T00:32:57;50.89;45.29;66.55;;
69668;Laerm;66534;52.370;4.832;2023-10-13T00:33:27;50.94;46.52;59.62;;
69668;Laerm;66534;52.370;4.832;2023-10-13T00:33:57;53.36;48.30;71.56;;
69668;Laerm;66534;52.370;4.832;2023-10-13T00:34:31;51.99;48.55;68.51;;
69668;Laerm;66534;52.370;4.832;2023-10-13T00:35:02;51.34;48.14;63.41;;
69668;Laerm;66534;52.370;4.832;2023-10-13T00:35:35;54.24;44.86;82.19;;
69668;Laerm;66534;52.370;4.832;2023-10-13T00:36:06;46.00;43.25;61.07;;
69668;Laerm;66534;52.370;4.832;2023-10-13T00:36:38;44.81;41.51;55.62;;
69668;Laerm;66534;52.370;4.832;2023-10-13T00:37:27;45.36;42.08;56.67;;
69668;Laerm;66534;52.370;4.832;2023-10-13T00:37:58;48.08;43.64;54.77;;
69668;Laerm;66534;52.370;4.832;2023-10-13T00:38:34;45.24;41.55;56.17;;
69668;Laerm;66534;52.370;4.832;2023-10-13T00:39:05;41.28;38.31;50.67;;
69668;Laerm;66534;52.370;4.832;2023-10-13T00:39:36;40.16;37.97;49.62;;
69668;Laerm;66534;52.370;4.832;2023-10-13T00:40:11;39.98;37.50;48.19;;
69668;Laerm;66534;52.370;4.832;2023-10-13T00:41:07;42.12;38.29;53.20;;
69668;Laerm;66534;52.370;4.832;2023-10-13T00:41:45;43.71;39.85;53.00;;
69668;Laerm;66534;52.370;4.832;2023-10-13T00:42:29;42.61;39.19;49.69;;
69668;Laerm;66534;52.370;4.832;2023-10-13T00:43:19;43.07;39.28;57.79;;
69668;Laerm;66534;52.370;4.832;2023-10-13T00:43:50;43.67;41.93;49.63;;
69668;Laerm;66534;52.370;4.832;2023-10-13T00:44:39;42.02;38.95;53.70;;
69668;Laerm;66534;52.370;4.832;2023-10-13T00:45:13;41.54;38.71;52.00;;
69668;Laerm;66534;52.370;4.832;2023-10-13T00:45:56;44.29;40.51;49.51;;
69668;Laerm;66534;52.370;4.832;2023-10-13T00:46:27;42.33;39.11;50.39;;
69668;Laerm;66534;52.370;4.832;2023-10-13T00:47:03;41.55;38.94;49.11;;
69668;Laerm;66534;52.370;4.832;2023-10-13T00:47:34;41.04;38.89;52.86;;
69668;Laerm;66534;52.370;4.832;2023-10-13T00:48:07;41.80;39.49;47.47;;
69668;Laerm;66534;52.370;4.832;2023-10-13T00:48:42;45.99;41.14;50.78;;
69668;Laerm;66534;52.370;4.832;2023-10-13T00:49:13;42.62;40.30;51.84;;
69668;Laerm;66534;52.370;4.832;2023-10-13T00:49:45;41.57;38.76;53.93;;
69668;Laerm;66534;52.370;4.832;2023-10-13T00:50:17;42.59;39.98;57.96;;
69668;Laerm;66534;52.370;4.832;2023-10-13T00:50:48;41.21;38.72;51.33;;
69668;Laerm;66534;52.370;4.832;2023-10-13T00:51:18;40.52;37.86;55.08;;
69668;Laerm;66534;52.370;4.832;2023-10-13T00:52:02;45.18;40.10;51.09;;
69668;Laerm;66534;52.370;4.832;2023-10-13T00:52:32;42.18;40.00;47.37;;
69668;Laerm;66534;52.370;4.832;2023-10-13T00:53:05;43.78;39.90;53.65;;
69668;Laerm;66534;52.370;4.832;2023-10-13T00:53:37;43.50;40.34;54.29;;
69668;Laerm;66534;52.370;4.832;2023-10-13T00:54:10;50.76;43.57;58.98;;
69668;Laerm;66534;52.370;4.832;2023-10-13T00:54:44;45.84;43.21;53.91;;
69668;Laerm;66534;52.370;4.832;2023-10-13T00:55:16;46.20;43.35;51.36;;
69668;Laerm;66534;52.370;4.832;2023-10-13T00:55:47;43.84;41.33;48.50;;
69668;Laerm;66534;52.370;4.832;2023-10-13T00:56:19;44.59;41.26;55.14;;
69668;Laerm;66534;52.370;4.832;2023-10-13T00:56:57;45.42;40.83;59.45;;
69668;Laerm;66534;52.370;4.832;2023-10-13T00:57:34;47.01;43.64;53.59;;
69668;Laerm;66534;52.370;4.832;2023-10-13T00:58:04;49.28;46.49;60.42;;
69668;Laerm;66534;52.370;4.832;2023-10-13T00:58:37;45.59;42.22;54.61;;
69668;Laerm;66534;52.370;4.832;2023-10-13T00:59:09;46.14;41.99;53.63;;
69668;Laerm;66534;52.370;4.832;2023-10-13T00:59:40;44.64;42.28;50.67;;
69668;Laerm;66534;52.370;4.832;2023-10-13T01:00:13;42.77;40.27;52.66;;
69668;Laerm;66534;52.370;4.832;2023-10-13T01:00:49;42.00;39.49;50.65;;
69668;Laerm;66534;52.370;4.832;2023-10-13T01:01:26;48.81;42.98;56.03;;
69668;Laerm;66534;52.370;4.832;2023-10-13T01:02:06;48.98;44.50;56.64;;
69668;Laerm;66534;52.370;4.832;2023-10-13T01:02:54;46.78;42.83;54.37;;
69668;Laerm;66534;52.370;4.832;2023-10-13T01:03:26;49.38;46.62;54.34;;
69668;Laerm;66534;52.370;4.832;2023-10-13T01:03:56;48.12;45.15;55.71;;
69668;Laerm;66534;52.370;4.832;2023-10-13T01:04:29;43.90;41.24;52.47;;
69668;Laerm;66534;52.370;4.832;2023-10-13T01:05:02;45.79;42.75;54.79;;
69668;Laerm;66534;52.370;4.832;2023-10-13T01:05:33;47.62;44.63;56.05;;
69668;Laerm;66534;52.370;4.832;2023-10-13T01:06:03;47.93;45.33;57.81;;
69668;Laerm;66534;52.370;4.832;2023-10-13T01:06:34;48.66;45.06;55.91;;
69668;Laerm;66534;52.370;4.832;2023-10-13T01:07:04;47.11;43.16;64.22;;
69668;Laerm;66534;52.370;4.832;2023-10-13T01:07:34;44.55;42.60;53.91;;
69668;Laerm;66534;52.370;4.832;2023-10-13T01:08:07;45.55;43.31;50.89;;
69668;Laerm;66534;52.370;4.832;2023-10-13T01:08:41;44.90;41.77;51.43;;
69668;Laerm;66534;52.370;4.832;2023-10-13T01:09:14;45.80;42.39;53.81;;
69668;Laerm;66534;52.370;4.832;2023-10-13T01:09:46;51.35;45.48;57.71;;
69668;Laerm;66534;52.370;4.832;2023-10-13T01:10:17;45.31;41.41;53.11;;
69668;Laerm;66534;52.370;4.832;2023-10-13T01:10:47;43.44;40.03;54.31;;
69668;Laerm;66534;52.370;4.832;2023-10-13T01:11:19;43.81;40.62;48.50;;
69668;Laerm;66534;52.370;4.832;2023-10-13T01:11:53;43.95;40.58;50.26;;
69668;Laerm;66534;52.370;4.832;2023-10-13T01:12:26;44.40;42.48;51.26;;
69668;Laerm;66534;52.370;4.832;2023-10-13T01:12:56;44.93;40.06;54.51;;
69668;Laerm;66534;52.370;4.832;2023-10-13T01:13:29;45.34;39.89;55.07;;
69668;Laerm;66534;52.370;4.832;2023-10-13T01:14:01;44.38;40.88;54.06;;
69668;Laerm;66534;52.370;4.832;2023-10-13T01:14:32;46.28;40.91;53.62;;
69668;Laerm;66534;52.370;4.832;2023-10-13T01:15:03;44.77;41.68;54.00;;
69668;Laerm;66534;52.370;4.832;2023-10-13T01:15:40;44.52;40.63;51.27;;
69668;Laerm;66534;52.370;4.832;2023-10-13T01:16:11;42.44;38.84;52.18;;
69668;Laerm;66534;52.370;4.832;2023-10-13T01:16:41;50.68;39.38;79.35;;
69668;Laerm;66534;52.370;4.832;2023-10-13T01:17:13;42.90;38.89;53.57;;
69668;Laerm;66534;52.370;4.832;2023-10-13T01:17:45;42.35;39.61;53.19;;
69668;Laerm;66534;52.370;4.832;2023-10-13T01:18:15;42.73;40.22;52.99;;
69668;Laerm;66534;52.370;4.832;2023-10-13T01:18:46;43.21;39.49;53.43;;
69668;Laerm;66534;52.370;4.832;2023-10-13T01:19:20;43.92;40.66;51.24;;
69668;Laerm;66534;52.370;4.832;2023-10-13T01:19:59;43.96;40.21;54.25;;
69668;Laerm;66534;52.370;4.832;2023-10-13T01:20:30;45.08;39.74;57.54;;
69668;Laerm;66534;52.370;4.832;2023-10-13T01:21:00;41.39;39.07;46.21;;
69668;Laerm;66534;52.370;4.832;2023-10-13T01:21:34;43.39;40.18;53.70;;
69668;Laerm;66534;52.370;4.832;2023-10-13T01:22:04;44.99;40.34;53.51;;
69668;Laerm;66534;52.370;4.832;2023-10-13T01:22:36;41.87;38.77;51.38;;
69668;Laerm;66534;52.370;4.832;2023-10-13T01:23:10;44.85;42.97;53.54;;
69668;Laerm;66534;52.370;4.832;2023-10-13T01:23:48;44.08;41.22;60.29;;
69668;Laerm;66534;52.370;4.832;2023-10-13T01:24:20;42.72;40.13;55.08;;
69668;Laerm;66534;52.370;4.832;2023-10-13T01:24:54;45.20;40.31;51.36;;
69668;Laerm;66534;52.370;4.832;2023-10-13T01:25:34;45.27;41.94;59.49;;
69668;Laerm;66534;52.370;4.832;2023-10-13T01:26:05;45.46;41.96;66.08;;
69668;Laerm;66534;52.370;4.832;2023-10-13T01:26:35;43.47;40.07;54.16;;
69668;Laerm;66534;52.370;4.832;2023-10-13T01:27:08;42.64;38.71;55.82;;
69668;Laerm;66534;52.370;4.832;2023-10-13T01:27:49;45.66;40.50;61.77;;
69668;Laerm;66534;52.370;4.832;2023-10-13T01:28:19;44.11;40.60;58.94;;
69668;Laerm;66534;52.370;4.832;2023-10-13T01:28:52;44.16;41.70;51.25;;
69668;Laerm;66534;52.370;4.832;2023-10-13T01:29:26;43.55;40.14;54.04;;
69668;Laerm;66534;52.370;4.832;2023-10-13T01:29:59;46.37;40.93;55.86;;
69668;Laerm;66534;52.370;4.832;2023-10-13T01:30:35;44.98;41.19;66.77;;
69668;Laerm;66534;52.370;4.832;2023-10-13T01:31:08;44.02;39.74;57.83;;
69668;Laerm;66534;52.370;4.832;2023-10-13T01:31:42;45.53;40.16;53.99;;
69668;Laerm;66534;52.370;4.832;2023-10-13T01:32:19;47.37;42.18;54.91;;
69668;Laerm;66534;52.370;4.832;2023-10-13T01:32:49;42.71;40.53;58.08;;
69668;Laerm;66534;52.370;4.832;2023-10-13T01:33:21;44.48;40.46;61.66;;
69668;Laerm;66534;52.370;4.832;2023-10-13T01:33:58;44.06;40.81;56.55;;
69668;Laerm;66534;52.370;4.832;2023-10-13T01:34:31;42.23;39.37;60.00;;
69668;Laerm;66534;52.370;4.832;2023-10-13T01:35:03;42.26;39.52;50.13;;
69668;Laerm;66534;52.370;4.832;2023-10-13T01:35:38;44.90;40.86;52.60;;
69668;Laerm;66534;52.370;4.832;2023-10-13T01:36:17;45.93;41.52;52.96;;
69668;Laerm;66534;52.370;4.832;2023-10-13T01:36:48;45.26;41.86;54.35;;
69668;Laerm;66534;52.370;4.832;2023-10-13T01:37:21;43.98;40.27;54.06;;
69668;Laerm;66534;52.370;4.832;2023-10-13T01:37:52;42.72;39.60;52.46;;
69668;Laerm;66534;52.370;4.832;2023-10-13T01:38:22;41.91;39.53;53.31;;
69668;Laerm;66534;52.370;4.832;2023-10-13T01:38:52;41.31;38.21;50.44;;
69668;Laerm;66534;52.370;4.832;2023-10-13T01:39:24;42.29;38.35;48.62;;
69668;Laerm;66534;52.370;4.832;2023-10-13T01:39:58;44.53;41.12;59.22;;
69668;Laerm;66534;52.370;4.832;2023-10-13T01:40:29;43.23;41.02;54.39;;
69668;Laerm;66534;52.370;4.832;2023-10-13T01:41:06;43.57;40.78;53.21;;
69668;Laerm;66534;52.370;4.832;2023-10-13T01:41:38;44.86;42.32;52.33;;
69668;Laerm;66534;52.370;4.832;2023-10-13T01:42:09;46.00;43.02;62.48;;
69668;Laerm;66534;52.370;4.832;2023-10-13T01:42:45;46.96;43.58;61.17;;
69668;Laerm;66534;52.370;4.832;2023-10-13T01:43:16;48.48;44.17;58.50;;
69668;Laerm;66534;52.370;4.832;2023-10-13T01:43:47;46.24;41.45;63.60;;
69668;Laerm;66534;52.370;4.832;2023-10-13T01:44:18;46.54;42.28;59.88;;
69668;Laerm;66534;52.370;4.832;2023-10-13T01:44:50;43.47;40.44;60.43;;
69668;Laerm;66534;52.370;4.832;2023-10-13T01:45:23;44.30;41.16;54.49;;
69668;Laerm;66534;52.370;4.832;2023-10-13T01:45:58;47.01;42.66;60.64;;
69668;Laerm;66534;52.370;4.832;2023-10-13T01:46:29;50.23;46.19;59.72;;
69668;Laerm;66534;52.370;4.832;2023-10-13T01:46:59;50.44;47.25;57.13;;
69668;Laerm;66534;52.370;4.832;2023-10-13T01:47:36;46.37;42.23;56.73;;
69668;Laerm;66534;52.370;4.832;2023-10-13T01:48:06;44.25;41.50;54.14;;
69668;Laerm;66534;52.370;4.832;2023-10-13T01:48:37;44.10;41.64;58.34;;
69668;Laerm;66534;52.370;4.832;2023-10-13T01:49:10;45.10;40.22;53.23;;
69668;Laerm;66534;52.370;4.832;2023-10-13T01:49:41;41.57;38.98;51.01;;
69668;Laerm;66534;52.370;4.832;2023-10-13T01:50:17;43.83;41.70;51.24;;
69668;Laerm;66534;52.370;4.832;2023-10-13T01:51:00;44.26;41.32;54.47;;
69668;Laerm;66534;52.370;4.832;2023-10-13T01:51:32;43.01;40.67;51.87;;
69668;Laerm;66534;52.370;4.832;2023-10-13T01:52:03;42.05;39.94;55.07;;
69668;Laerm;66534;52.370;4.832;2023-10-13T01:52:34;43.34;41.32;49.79;;
69668;Laerm;66534;52.370;4.832;2023-10-13T01:53:04;42.80;38.31;60.63;;
69668;Laerm;66534;52.370;4.832;2023-10-13T01:54:01;47.59;38.14;56.57;;
69668;Laerm;66534;52.370;4.832;2023-10-13T01:54:33;45.10;41.39;54.25;;
69668;Laerm;66534;52.370;4.832;2023-10-13T01:55:03;42.41;40.05;59.99;;
69668;Laerm;66534;52.370;4.832;2023-10-13T01:55:37;41.94;39.78;51.08;;
69668;Laerm;66534;52.370;4.832;2023-10-13T01:56:09;42.00;38.79;54.32;;
69668;Laerm;66534;52.370;4.832;2023-10-13T01:56:44;44.03;41.40;49.58;;
69668;Laerm;66534;52.370;4.832;2023-10-13T01:57:14;46.32;43.52;53.31;;
69668;Laerm;66534;52.370;4.832;2023-10-13T01:57:47;46.66;41.91;52.20;;
69668;Laerm;66534;52.370;4.832;2023-10-13T01:58:18;45.90;43.16;52.71;;
69668;Laerm;66534;52.370;4.832;2023-10-13T01:58:52;45.13;40.74;58.25;;
69668;Laerm;66534;52.370;4.832;2023-10-13T01:59:23;42.90;39.70;53.81;;
69668;Laerm;66534;52.370;4.832;2023-10-13T01:59:54;43.55;40.73;55.50;;
69668;Laerm;66534;52.370;4.832;2023-10-13T02:00:33;44.95;41.85;50.87;;
69668;Laerm;66534;52.370;4.832;2023-10-13T02:01:10;45.86;42.38;58.66;;
69668;Laerm;66534;52.370;4.832;2023-10-13T02:01:41;44.19;40.87;49.84;;
69668;Laerm;66534;52.370;4.832;2023-10-13T02:02:11;45.02;40.75;54.26;;
69668;Laerm;66534;52.370;4.832;2023-10-13T02:02:49;42.31;40.07;50.59;;
69668;Laerm;66534;52.370;4.832;2023-10-13T02:03:21;42.46;40.47;51.93;;
69668;Laerm;66534;52.370;4.832;2023-10-13T02:03:57;43.82;41.39;58.19;;
69668;Laerm;66534;52.370;4.832;2023-10-13T02:04:34;44.62;40.76;65.42;;
69668;Laerm;66534;52.370;4.832;2023-10-13T02:05:04;43.96;41.50;54.26;;
69668;Laerm;66534;52.370;4.832;2023-10-13T02:05:35;44.30;41.22;55.62;;
69668;Laerm;66534;52.370;4.832;2023-10-13T02:06:06;46.65;42.68;57.91;;
69668;Laerm;66534;52.370;4.832;2023-10-13T02:06:40;45.28;41.29;51.54;;
69668;Laerm;66534;52.370;4.832;2023-10-13T02:07:10;46.49;44.17;57.73;;
69668;Laerm;66534;52.370;4.832;2023-10-13T02:07:44;46.49;43.24;51.30;;
69668;Laerm;66534;52.370;4.832;2023-10-13T02:08:21;45.94;42.95;52.89;;
69668;Laerm;66534;52.370;4.832;2023-10-13T02:08:54;46.76;44.17;54.12;;
69668;Laerm;66534;52.370;4.832;2023-10-13T02:09:27;47.09;44.37;53.96;;
69668;Laerm;66534;52.370;4.832;2023-10-13T02:09:59;48.44;42.14;56.11;;
69668;Laerm;66534;52.370;4.832;2023-10-13T02:10:33;45.78;42.38;54.96;;
69668;Laerm;66534;52.370;4.832;2023-10-13T02:11:04;45.14;42.05;60.74;;
69668;Laerm;66534;52.370;4.832;2023-10-13T02:11:37;47.21;43.08;66.90;;
69668;Laerm;66534;52.370;4.832;2023-10-13T02:12:08;46.94;44.41;55.98;;
69668;Laerm;66534;52.370;4.832;2023-10-13T02:12:39;46.13;42.71;58.33;;
69668;Laerm;66534;52.370;4.832;2023-10-13T02:13:13;44.89;41.03;53.23;;
69668;Laerm;66534;52.370;4.832;2023-10-13T02:13:45;43.43;40.83;53.88;;
69668;Laerm;66534;52.370;4.832;2023-10-13T02:14:23;44.71;42.03;57.93;;
69668;Laerm;66534;52.370;4.832;2023-10-13T02:14:55;46.97;44.33;52.66;;
69668;Laerm;66534;52.370;4.832;2023-10-13T02:15:26;49.73;45.02;54.58;;
69668;Laerm;66534;52.370;4.832;2023-10-13T02:15:57;48.15;44.91;56.30;;
69668;Laerm;66534;52.370;4.832;2023-10-13T02:16:27;47.58;43.55;59.77;;
69668;Laerm;66534;52.370;4.832;2023-10-13T02:16:58;45.81;42.79;58.29;;
69668;Laerm;66534;52.370;4.832;2023-10-13T02:17:46;45.77;41.97;58.50;;
69668;Laerm;66534;52.370;4.832;2023-10-13T02:18:21;45.76;42.88;53.32;;
69668;Laerm;66534;52.370;4.832;2023-10-13T02:18:59;47.59;44.92;55.67;;
69668;Laerm;66534;52.370;4.832;2023-10-13T02:19:34;47.73;45.18;56.02;;
69668;Laerm;66534;52.370;4.832;2023-10-13T02:20:05;46.75;44.72;51.91;;
69668;Laerm;66534;52.370;4.832;2023-10-13T02:20:38;46.95;43.54;55.93;;
69668;Laerm;66534;52.370;4.832;2023-10-13T02:21:16;46.20;43.33;63.74;;
69668;Laerm;66534;52.370;4.832;2023-10-13T02:21:46;45.61;42.91;56.43;;
69668;Laerm;66534;52.370;4.832;2023-10-13T02:22:28;47.17;44.68;59.14;;
69668;Laerm;66534;52.370;4.832;2023-10-13T02:22:59;46.31;43.28;61.76;;
69668;Laerm;66534;52.370;4.832;2023-10-13T02:23:30;46.13;42.40;56.07;;
69668;Laerm;66534;52.370;4.832;2023-10-13T02:24:00;44.81;42.20;53.56;;
69668;Laerm;66534;52.370;4.832;2023-10-13T02:24:33;44.73;41.72;57.36;;
69668;Laerm;66534;52.370;4.832;2023-10-13T02:25:03;44.51;41.81;58.66;;
69668;Laerm;66534;52.370;4.832;2023-10-13T02:25:36;46.74;42.93;56.58;;
69668;Laerm;66534;52.370;4.832;2023-10-13T02:26:13;45.44;42.29;59.59;;
69668;Laerm;66534;52.370;4.832;2023-10-13T02:26:46;46.49;43.68;61.79;;
69668;Laerm;66534;52.370;4.832;2023-10-13T02:27:16;46.27;42.90;61.67;;
69668;Laerm;66534;52.370;4.832;2023-10-13T02:27:46;46.73;43.39;63.16;;
69668;Laerm;66534;52.370;4.832;2023-10-13T02:28:28;49.20;44.29;72.51;;
69668;Laerm;66534;52.370;4.832;2023-10-13T02:29:03;48.36;45.09;57.55;;
69668;Laerm;66534;52.370;4.832;2023-10-13T02:29:37;49.14;46.63;60.74;;
69668;Laerm;66534;52.370;4.832;2023-10-13T02:30:09;48.81;45.43;67.96;;
69668;Laerm;66534;52.370;4.832;2023-10-13T02:30:44;48.52;45.32;62.10;;
69668;Laerm;66534;52.370;4.832;2023-10-13T02:31:20;47.77;45.21;58.46;;
69668;Laerm;66534;52.370;4.832;2023-10-13T02:31:54;47.55;44.23;63.32;;
69668;Laerm;66534;52.370;4.832;2023-10-13T02:32:25;47.52;43.54;67.47;;
69668;Laerm;66534;52.370;4.832;2023-10-13T02:32:56;47.07;43.91;60.57;;
69668;Laerm;66534;52.370;4.832;2023-10-13T02:33:27;47.47;44.52;58.82;;
69668;Laerm;66534;52.370;4.832;2023-10-13T02:34:01;49.55;45.90;69.86;;
69668;Laerm;66534;52.370;4.832;2023-10-13T02:34:36;53.55;45.50;81.50;;
69668;Laerm;66534;52.370;4.832;2023-10-13T02:35:06;48.34;45.77;58.21;;
69668;Laerm;66534;52.370;4.832;2023-10-13T02:35:40;48.63;45.88;55.45;;
69668;Laerm;66534;52.370;4.832;2023-10-13T02:36:16;50.23;46.26;69.28;;
69668;Laerm;66534;52.370;4.832;2023-10-13T02:36:52;48.59;45.08;67.27;;
69668;Laerm;66534;52.370;4.832;2023-10-13T02:37:24;49.08;45.28;68.29;;
69668;Laerm;66534;52.370;4.832;2023-10-13T02:37:55;49.15;45.24;71.81;;
69668;Laerm;66534;52.370;4.832;2023-10-13T02:38:28;47.84;45.05;64.79;;
69668;Laerm;66534;52.370;4.832;2023-10-13T02:39:04;46.48;43.67;55.57;;
69668;Laerm;66534;52.370;4.832;2023-10-13T02:39:37;52.78;44.85;73.57;;
69668;Laerm;66534;52.370;4.832;2023-10-13T02:40:11;47.73;45.35;54.06;;
69668;Laerm;66534;52.370;4.832;2023-10-13T02:40:41;47.34;43.50;54.62;;
69668;Laerm;66534;52.370;4.832;2023-10-13T02:41:12;46.04;43.70;60.90;;
69668;Laerm;66534;52.370;4.832;2023-10-13T02:41:49;46.30;43.57;57.01;;
69668;Laerm;66534;52.370;4.832;2023-10-13T02:42:19;47.24;43.58;54.34;;
69668;Laerm;66534;52.370;4.832;2023-10-13T02:42:55;49.47;45.17;56.57;;
69668;Laerm;66534;52.370;4.832;2023-10-13T02:43:26;46.87;44.10;52.96;;
69668;Laerm;66534;52.370;4.832;2023-10-13T02:44:04;49.14;43.39;75.57;;
69668;Laerm;66534;52.370;4.832;2023-10-13T02:44:38;43.64;40.39;54.53;;
69668;Laerm;66534;52.370;4.832;2023-10-13T02:45:11;43.73;40.89;56.52;;
69668;Laerm;66534;52.370;4.832;2023-10-13T02:45:45;44.00;41.01;58.32;;
69668;Laerm;66534;52.370;4.832;2023-10-13T02:46:26;46.80;42.01;65.32;;
69668;Laerm;66534;52.370;4.832;2023-10-13T02:46:59;44.36;41.78;58.22;;
69668;Laerm;66534;52.370;4.832;2023-10-13T02:47:30;44.76;42.17;58.37;;
69668;Laerm;66534;52.370;4.832;2023-10-13T02:48:02;46.53;43.19;56.28;;
69668;Laerm;66534;52.370;4.832;2023-10-13T02:48:48;45.96;42.94;60.78;;
69668;Laerm;66534;52.370;4.832;2023-10-13T02:49:24;45.87;43.15;61.35;;
69668;Laerm;66534;52.370;4.832;2023-10-13T02:49:56;47.41;44.10;54.35;;
69668;Laerm;66534;52.370;4.832;2023-10-13T02:50:30;46.90;43.27;64.73;;
69668;Laerm;66534;52.370;4.832;2023-10-13T02:51:03;46.30;43.21;65.44;;
69668;Laerm;66534;52.370;4.832;2023-10-13T02:51:45;48.35;44.02;71.47;;
69668;Laerm;66534;52.370;4.832;2023-10-13T02:52:15;47.49;44.81;58.50;;
69668;Laerm;66534;52.370;4.832;2023-10-13T02:52:46;47.62;44.76;58.57;;
69668;Laerm;66534;52.370;4.832;2023-10-13T02:53:20;49.76;44.40;63.82;;
69668;Laerm;66534;52.370;4.832;2023-10-13T02:53:50;48.34;44.62;59.22;;
69668;Laerm;66534;52.370;4.832;2023-10-13T02:54:20;48.71;44.80;71.48;;
69668;Laerm;66534;52.370;4.832;2023-10-13T02:54:51;50.91;46.46;71.12;;
69668;Laerm;66534;52.370;4.832;2023-10-13T02:55:21;49.74;45.83;62.30;;
69668;Laerm;66534;52.370;4.832;2023-10-13T02:55:55;48.86;45.07;71.32;;
69668;Laerm;66534;52.370;4.832;2023-10-13T02:56:36;52.10;45.14;80.27;;
69668;Laerm;66534;52.370;4.832;2023-10-13T02:57:06;49.19;45.42;72.13;;
69668;Laerm;66534;52.370;4.832;2023-10-13T02:57:36;49.13;46.03;58.47;;
69668;Laerm;66534;52.370;4.832;2023-10-13T02:58:09;52.29;47.72;75.13;;
69668;Laerm;66534;52.370;4.832;2023-10-13T02:58:40;50.68;47.21;64.65;;
69668;Laerm;66534;52.370;4.832;2023-10-13T02:59:14;51.34;46.27;67.25;;
69668;Laerm;66534;52.370;4.832;2023-10-13T02:59:44;52.26;48.21;69.74;;
69668;Laerm;66534;52.370;4.832;2023-10-13T03:00:18;53.99;49.55;73.97;;
69668;Laerm;66534;52.370;4.832;2023-10-13T03:00:53;54.17;50.79;73.46;;
69668;Laerm;66534;52.370;4.832;2023-10-13T03:01:23;51.70;48.22;62.78;;
69668;Laerm;66534;52.370;4.832;2023-10-13T03:02:00;52.62;48.39;67.59;;
69668;Laerm;66534;52.370;4.832;2023-10-13T03:02:30;53.50;48.79;74.21;;
69668;Laerm;66534;52.370;4.832;2023-10-13T03:03:02;54.96;50.00;78.83;;
69668;Laerm;66534;52.370;4.832;2023-10-13T03:03:32;52.30;49.56;62.86;;
69668;Laerm;66534;52.370;4.832;2023-10-13T03:04:04;53.66;48.51;75.56;;
69668;Laerm;66534;52.370;4.832;2023-10-13T03:04:38;52.31;48.64;66.14;;
69668;Laerm;66534;52.370;4.832;2023-10-13T03:05:09;52.68;47.75;75.52;;
69668;Laerm;66534;52.370;4.832;2023-10-13T03:05:39;51.35;48.14;65.16;;
69668;Laerm;66534;52.370;4.832;2023-10-13T03:06:10;53.02;47.33;78.98;;
69668;Laerm;66534;52.370;4.832;2023-10-13T03:06:42;51.57;48.08;64.36;;
69668;Laerm;66534;52.370;4.832;2023-10-13T03:07:12;51.38;48.01;65.92;;
69668;Laerm;66534;52.370;4.832;2023-10-13T03:07:45;52.28;48.18;64.08;;
69668;Laerm;66534;52.370;4.832;2023-10-13T03:08:16;52.27;48.58;64.41;;